Time;durP1;ratioP1;P1;durP2;ratioP2;P2;SDS_P1;SDS_P2;PMS_P1;PMS_P2;Temp;Humidity;BMP_temperature;BMP_pressure;BME280_temperature;BME280_humidity;BME280_pressure;Samples;Min_cycle;Max_cycle;Signal;HPM_P1;HPM_P2
2021/07/27 00:01:08;;;;;;;7.13;3.38;;;19.00;99.90;;;;;;5070697;28;20021;-81
2021/07/27 00:03:34;;;;;;;5.70;3.58;;;;;;;;;;5069430;28;20101;-81
2021/07/27 00:06:00;;;;;;;14.40;4.80;;;;;;;;;;5075905;28;20115;-79
2021/07/27 00:08:26;;;;;;;7.55;4.00;;;;;;;;;;5073449;28;20117;-81
2021/07/27 00:10:53;;;;;;;5.95;3.65;;;;;;;;;;5065445;28;20045;-82
2021/07/27 00:13:19;;;;;;;5.97;3.47;;;19.00;99.90;;;;;;5068024;28;20366;-82
2021/07/27 00:15:48;;;;;;;4.53;3.15;;;18.90;99.90;;;;;;5065065;28;20037;-82
2021/07/27 00:18:14;;;;;;;5.40;3.55;;;;;;;;;;5069879;28;20025;-81
2021/07/27 00:20:40;;;;;;;7.07;3.58;;;;;;;;;;5070270;28;20047;-80
2021/07/27 00:23:06;;;;;;;5.53;3.63;;;;;;;;;;5072696;28;20025;-81
2021/07/27 00:25:31;;;;;;;6.60;3.50;;;18.90;99.90;;;;;;5074577;28;20024;-80
2021/07/27 00:27:57;;;;;;;6.63;4.38;;;18.90;99.90;;;;;;5071837;28;20182;-82
2021/07/27 00:30:23;;;;;;;7.65;3.80;;;;;;;;;;5070883;28;20706;-83
2021/07/27 00:32:49;;;;;;;5.53;3.67;;;;;;;;;;5068435;28;20032;-82
2021/07/27 00:35:15;;;;;;;4.95;3.25;;;18.90;99.90;;;;;;5075182;28;20036;-82
2021/07/27 00:37:57;;;;;;;5.30;3.58;;;;;;;;;;5080662;28;20019;-83
2021/07/27 00:40:23;;;;;;;6.32;4.13;;;;;;;;;;5070458;28;20025;-83
2021/07/27 00:42:49;;;;;;;5.53;3.47;;;19.00;99.90;;;;;;5073048;28;20103;-83
2021/07/27 00:45:15;;;;;;;5.88;3.28;;;19.00;99.90;;;;;;5075609;28;20521;-82
2021/07/27 00:47:42;;;;;;;6.43;3.55;;;19.00;99.90;;;;;;5073855;28;20044;-81
2021/07/27 00:50:10;;;;;;;6.03;3.33;;;19.00;99.90;;;;;;5069761;28;22139;-78
2021/07/27 00:52:39;;;;;;;6.95;3.35;;;19.00;99.90;;;;;;5069652;28;20032;-83
2021/07/27 00:55:06;;;;;;;4.53;3.15;;;19.00;99.90;;;;;;5070278;28;20037;-82
2021/07/27 00:57:32;;;;;;;4.57;3.25;;;;;;;;;;5071555;28;20070;-82
2021/07/27 00:59:59;;;;;;;8.27;3.88;;;;;;;;;;5065545;28;20032;-82
2021/07/27 01:02:25;;;;;;;7.10;3.80;;;;;;;;;;5071917;28;20108;-83
2021/07/27 01:04:50;;;;;;;4.85;3.08;;;18.90;99.90;;;;;;5065630;28;20029;-84
2021/07/27 01:07:18;;;;;;;5.03;3.30;;;;;;;;;;5076330;28;20117;-83
2021/07/27 01:09:44;;;;;;;7.50;3.95;;;18.90;99.90;;;;;;5075979;28;20025;-83
2021/07/27 01:12:09;;;;;;;6.50;3.20;;;20.70;99.90;;;;;;5069813;28;20036;-82
2021/07/27 01:14:35;;;;;;;6.43;3.78;;;21.40;99.90;;;;;;5063383;28;20056;-83
2021/07/27 01:17:01;;;;;;;5.80;3.20;;;;;;;;;;5071933;28;20042;-81
2021/07/27 01:43:43;;;;;;;8.77;4.15;;;19.00;99.90;;;;;;5072957;28;20064;-82
2021/07/27 01:46:09;;;;;;;6.90;3.47;;;;;;;;;;5069747;28;20106;-83
2021/07/27 01:48:36;;;;;;;5.15;3.55;;;18.90;99.90;;;;;;5076188;28;20056;-82
2021/07/27 01:51:05;;;;;;;8.20;3.92;;;18.90;99.90;;;;;;5075155;28;20036;-81
2021/07/27 01:53:34;;;;;;;7.72;3.60;;;;;;;;;;5081760;28;20029;-81
2021/07/27 01:56:00;;;;;;;5.82;3.95;;;;;;;;;;5075649;28;20035;-82
2021/07/27 01:58:26;;;;;;;6.82;4.50;;;;;;;;;;5084131;28;20025;-81
2021/07/27 02:00:52;;;;;;;6.47;3.67;;;;;;;;;;5076814;28;20032;-84
2021/07/27 02:03:18;;;;;;;6.93;4.75;;;;;;;;;;5081125;28;20052;-80
2021/07/27 02:05:45;;;;;;;6.80;3.72;;;;;;;;;;5073539;28;20028;-81
2021/07/27 02:08:11;;;;;;;5.00;3.40;;;;;;;;;;5082084;28;20119;-83
2021/07/27 02:10:38;;;;;;;7.40;3.95;;;;;;;;;;5076248;28;20029;-82
2021/07/27 02:13:12;;;;;;;6.10;3.78;;;18.70;99.90;;;;;;5073659;28;20060;-84
2021/07/27 02:15:42;;;;;;;6.03;3.60;;;18.70;99.90;;;;;;5076529;28;20119;-82
2021/07/27 02:18:08;;;;;;;5.60;3.50;;;18.70;99.90;;;;;;5073822;28;20028;-81
2021/07/27 02:20:35;;;;;;;7.82;3.70;;;18.60;99.90;;;;;;5074546;28;20025;-82
2021/07/27 02:23:06;;;;;;;6.22;4.05;;;20.50;99.90;;;;;;5076760;28;20029;-82
2021/07/27 02:25:32;;;;;;;6.70;3.42;;;18.50;99.90;;;;;;5078078;28;20040;-81
2021/07/27 02:27:59;;;;;;;6.82;3.55;;;18.50;99.90;;;;;;5072690;28;20028;-83
2021/07/27 02:30:24;;;;;;;7.97;3.78;;;19.70;99.90;;;;;;5069546;28;20052;-80
2021/07/27 02:32:50;;;;;;;5.70;3.88;;;18.40;99.90;;;;;;5076471;28;20032;-83
2021/07/27 02:35:16;;;;;;;6.53;3.80;;;18.40;99.90;;;;;;5081081;28;20025;-81
2021/07/27 02:37:42;;;;;;;7.57;3.47;;;18.70;99.90;;;;;;5076022;28;20024;-81
2021/07/27 02:40:10;;;;;;;6.32;4.00;;;18.30;99.90;;;;;;5072535;28;20450;-82
2021/07/27 02:42:36;;;;;;;5.88;3.88;;;;;;;;;;5078019;28;20031;-81
2021/07/27 02:45:07;;;;;;;5.60;3.60;;;18.30;99.90;;;;;;5076238;28;20061;-80
2021/07/27 02:47:33;;;;;;;11.57;3.75;;;18.20;99.90;;;;;;5076286;28;20035;-83
2021/07/27 02:49:59;;;;;;;6.20;3.95;;;;;;;;;;5076336;28;20036;-84
2021/07/27 02:52:26;;;;;;;7.18;4.15;;;;;;;;;;5071507;28;20434;-81
2021/07/27 02:54:52;;;;;;;6.20;3.90;;;;;;;;;;5076643;28;20028;-81
2021/07/27 02:57:18;;;;;;;7.40;3.92;;;;;;;;;;5073712;28;20071;-81
2021/07/27 02:59:44;;;;;;;11.02;5.15;;;;;;;;;;5077194;28;20025;-82
2021/07/27 03:02:10;;;;;;;6.43;3.80;;;;;;;;;;5075399;28;20024;-82
2021/07/27 03:04:36;;;;;;;6.53;3.65;;;;;;;;;;5076250;28;20025;-80
2021/07/27 03:07:03;;;;;;;8.77;4.72;;;;;;;;;;5074369;28;20621;-84
2021/07/27 03:09:31;;;;;;;7.20;4.03;;;;;;;;;;5074675;28;20020;-81
2021/07/27 03:11:58;;;;;;;9.32;4.50;;;;;;;;;;5075553;28;20115;-80
2021/07/27 03:14:27;;;;;;;8.95;4.97;;;;;;;;;;5075274;28;20851;-80
2021/07/27 03:16:56;;;;;;;9.35;4.40;;;;;;;;;;5071469;28;20039;-81
2021/07/27 03:19:22;;;;;;;8.75;4.30;;;;;;;;;;5074291;28;20032;-83
2021/07/27 03:21:48;;;;;;;6.75;4.18;;;;;;;;;;5067258;28;20025;-80
2021/07/27 03:24:14;;;;;;;6.82;4.03;;;;;;;;;;5076582;28;20083;-81
2021/07/27 03:26:40;;;;;;;6.38;4.40;;;;;;;;;;5075523;28;20028;-82
2021/07/27 03:29:07;;;;;;;6.80;4.28;;;17.80;99.90;;;;;;5078384;28;20024;-83
2021/07/27 03:31:33;;;;;;;7.97;4.10;;;;;;;;;;5073460;28;20037;-81
2021/07/27 03:34:00;;;;;;;9.48;4.25;;;;;;;;;;5062756;28;20056;-81
2021/07/27 03:36:26;;;;;;;7.28;4.28;;;;;;;;;;5071989;28;20029;-84
2021/07/27 03:38:52;;;;;;;7.05;4.40;;;17.90;99.90;;;;;;5077302;28;20120;-81
2021/07/27 03:41:18;;;;;;;7.13;4.65;;;17.80;99.90;;;;;;5059635;28;20020;-82
2021/07/27 03:43:44;;;;;;;8.70;4.20;;;;;;;;;;5072974;28;20052;-81
2021/07/27 03:46:10;;;;;;;7.03;4.25;;;;;;;;;;5075092;28;20032;-81
2021/07/27 03:48:36;;;;;;;6.97;4.47;;;;;;;;;;5076175;28;20031;-82
2021/07/27 03:51:02;;;;;;;7.25;4.10;;;17.80;99.90;;;;;;5079097;28;20032;-82
2021/07/27 03:53:28;;;;;;;10.07;5.05;;;;;;;;;;5078230;28;20043;-80
2021/07/27 03:55:54;;;;;;;9.15;4.85;;;;;;;;;;5075888;28;20513;-81
2021/07/27 03:58:20;;;;;;;7.47;4.43;;;;;;;;;;5077581;28;20028;-83
2021/07/27 04:00:46;;;;;;;7.38;4.60;;;;;;;;;;5072326;28;20048;-83
2021/07/27 04:03:13;;;;;;;6.90;4.45;;;;;;;;;;5075669;28;20025;-81
2021/07/27 04:05:41;;;;;;;6.20;4.05;;;17.70;99.90;;;;;;5071106;28;20039;-85
2021/07/27 04:08:08;;;;;;;6.75;4.63;;;;;;;;;;5075832;28;20091;-80
2021/07/27 04:10:34;;;;;;;9.48;4.55;;;17.70;99.90;;;;;;5072720;28;20512;-81
2021/07/27 04:13:00;;;;;;;8.13;4.90;;;;;;;;;;5071751;28;20029;-80
2021/07/27 04:15:26;;;;;;;8.05;4.95;;;;;;;;;;5076699;28;20072;-81
2021/07/27 04:17:52;;;;;;;7.20;4.30;;;;;;;;;;5079401;28;20060;-82
2021/07/27 04:20:18;;;;;;;11.00;4.55;;;;;;;;;;5074473;28;20028;-80
2021/07/27 04:22:44;;;;;;;5.35;3.85;;;;;;;;;;5073722;28;20029;-80
2021/07/27 04:25:10;;;;;;;7.05;4.78;;;;;;;;;;5078575;28;20119;-82
2021/07/27 04:27:35;;;;;;;6.90;4.30;;;17.90;99.90;;;;;;5079930;28;20032;-81
2021/07/27 04:30:02;;;;;;;8.43;4.57;;;;;;;;;;5078941;28;20032;-81
2021/07/27 04:32:29;;;;;;;7.20;4.45;;;;;;;;;;5077043;28;20375;-80
2021/07/27 04:34:55;;;;;;;8.38;4.28;;;;;;;;;;5078699;28;20394;-79
2021/07/27 04:37:21;;;;;;;8.40;4.63;;;17.80;99.90;;;;;;5078794;28;20047;-83
2021/07/27 04:39:53;;;;;;;8.23;4.65;;;19.70;99.90;;;;;;5076786;28;20083;-82
2021/07/27 04:42:20;;;;;;;10.25;4.80;;;;;;;;;;5073871;28;20088;-82
2021/07/27 04:44:46;;;;;;;6.20;4.35;;;;;;;;;;5073992;28;20074;-83
2021/07/27 04:47:12;;;;;;;8.88;4.95;;;;;;;;;;5075674;28;20036;-81
2021/07/27 04:49:37;;;;;;;8.80;4.80;;;17.80;99.90;;;;;;5075143;28;20028;-80
2021/07/27 04:52:06;;;;;;;7.03;4.18;;;17.90;99.90;;;;;;5074662;28;20029;-84
2021/07/27 04:54:41;;;;;;;6.55;4.80;;;17.80;99.90;;;;;;5069894;28;20025;-83
2021/07/27 04:57:10;;;;;;;8.93;4.68;;;17.90;99.90;;;;;;5073881;28;20050;-83
2021/07/27 04:59:35;;;;;;;6.88;4.50;;;18.00;99.90;;;;;;5068518;28;20033;-83
2021/07/27 05:02:01;;;;;;;7.95;5.30;;;;;;;;;;5069588;28;20085;-83
2021/07/27 05:04:29;;;;;;;11.48;5.32;;;;;;;;;;5067790;28;20092;-82
2021/07/27 05:06:55;;;;;;;8.65;5.25;;;18.10;99.90;;;;;;5067763;28;20033;-81
2021/07/27 05:09:21;;;;;;;10.45;5.95;;;19.60;99.90;;;;;;5069564;28;20024;-84
2021/07/27 05:11:47;;;;;;;8.70;5.07;;;;;;;;;;5074026;28;20554;-83
2021/07/27 05:14:12;;;;;;;8.43;5.30;;;18.20;99.90;;;;;;5071506;28;20095;-83
2021/07/27 05:16:38;;;;;;;10.23;5.13;;;;;;;;;;5067604;28;20028;-83
2021/07/27 05:19:07;;;;;;;8.88;5.30;;;18.30;99.90;;;;;;5070634;28;20209;-83
2021/07/27 05:21:33;;;;;;;8.32;5.03;;;18.20;99.90;;;;;;5079077;28;20083;-81
2021/07/27 05:23:59;;;;;;;8.15;5.32;;;;;;;;;;5079059;28;20032;-83
2021/07/27 05:26:25;;;;;;;9.30;5.20;;;;;;;;;;5076236;28;20100;-82
2021/07/27 05:28:51;;;;;;;8.63;5.03;;;;;;;;;;5072568;28;20063;-82
2021/07/27 05:31:19;;;;;;;9.07;4.93;;;;;;;;;;5076410;28;20031;-84
2021/07/27 05:33:45;;;;;;;9.43;4.90;;;;;;;;;;5069575;28;20500;-81
2021/07/27 05:36:11;;;;;;;8.82;4.93;;;;;;;;;;5072898;28;20100;-82
2021/07/27 05:38:37;;;;;;;8.05;5.22;;;;;;;;;;5064465;28;20027;-81
2021/07/27 05:41:03;;;;;;;10.73;5.22;;;;;;;;;;5061059;28;20029;-81
2021/07/27 05:43:29;;;;;;;7.63;4.95;;;;;;;;;;5070649;28;20094;-83
2021/07/27 05:45:57;;;;;;;6.80;4.78;;;;;;;;;;5070689;28;20037;-82
2021/07/27 05:48:23;;;;;;;19.45;11.00;;;;;;;;;;5072230;28;20033;-80
2021/07/27 05:50:50;;;;;;;14.75;7.43;;;18.40;99.90;;;;;;5076894;28;20032;-80
2021/07/27 05:53:16;;;;;;;8.30;5.35;;;18.50;99.90;;;;;;5074054;28;20032;-83
2021/07/27 05:55:42;;;;;;;10.35;5.13;;;;;;;;;;5067686;28;20397;-81
2021/07/27 05:58:08;;;;;;;8.98;4.70;;;;;;;;;;5064153;28;20039;-81
2021/07/27 06:00:36;;;;;;;8.27;4.32;;;18.80;99.90;;;;;;5060778;28;20063;-84
2021/07/27 06:03:06;;;;;;;6.80;5.03;;;19.10;99.90;;;;;;5068578;28;21687;-81
2021/07/27 06:05:32;;;;;;;9.20;4.63;;;18.80;99.90;;;;;;5070331;28;20024;-82
2021/07/27 06:07:57;;;;;;;8.07;5.20;;;18.70;99.90;;;;;;5068216;28;20559;-81
2021/07/27 06:10:23;;;;;;;8.45;5.32;;;18.60;99.90;;;;;;5070511;28;20037;-82
2021/07/27 06:12:48;;;;;;;7.88;4.95;;;18.60;99.90;;;;;;5071400;28;20583;-81
2021/07/27 06:15:14;;;;;;;6.30;4.50;;;18.60;99.90;;;;;;5072714;28;20025;-82
2021/07/27 06:17:40;;;;;;;8.68;5.22;;;18.70;99.90;;;;;;5070645;28;20036;-84
2021/07/27 06:20:06;;;;;;;6.45;4.53;;;19.20;99.90;;;;;;5062869;28;20063;-81
2021/07/27 06:22:32;;;;;;;8.00;4.82;;;18.80;99.90;;;;;;5069246;28;20608;-82
2021/07/27 06:24:58;;;;;;;8.02;5.28;;;18.80;99.90;;;;;;5065850;28;20068;-84
2021/07/27 06:27:24;;;;;;;8.15;4.82;;;19.20;99.90;;;;;;5078211;28;20353;-84
2021/07/27 06:29:50;;;;;;;8.18;5.13;;;;;;;;;;5071373;28;20021;-85
2021/07/27 06:32:16;;;;;;;11.57;5.40;;;;;;;;;;5066780;28;20020;-85
2021/07/27 06:34:42;;;;;;;8.48;5.15;;;;;;;;;;5068239;28;20621;-83
2021/07/27 06:37:08;;;;;;;9.32;4.60;;;;;;;;;;5072472;28;20112;-82
2021/07/27 06:39:34;;;;;;;8.00;5.18;;;19.10;99.90;;;;;;5070328;28;20052;-82
2021/07/27 06:42:00;;;;;;;8.35;4.82;;;;;;;;;;5069130;28;20025;-82
2021/07/27 06:44:26;;;;;;;8.50;5.25;;;;;;;;;;5073302;28;20059;-83
2021/07/27 06:46:52;;;;;;;7.70;4.45;;;19.10;99.90;;;;;;5065693;28;20499;-81
2021/07/27 06:49:18;;;;;;;7.88;4.88;;;;;;;;;;5069238;28;20040;-81
2021/07/27 06:51:43;;;;;;;16.02;5.93;;;19.10;99.90;;;;;;5072629;28;20025;-83
2021/07/27 06:54:09;;;;;;;10.02;5.43;;;19.80;99.90;;;;;;5066525;28;20066;-83
2021/07/27 06:56:37;;;;;;;10.05;5.38;;;;;;;;;;5061735;28;20587;-82
2021/07/27 06:59:03;;;;;;;9.30;4.70;;;19.30;99.90;;;;;;5074964;28;21423;-83
2021/07/27 07:01:29;;;;;;;7.95;4.65;;;;;;;;;;5071497;28;20033;-86
2021/07/27 07:03:55;;;;;;;7.75;4.90;;;19.50;99.90;;;;;;5063525;28;20028;-84
2021/07/27 07:06:20;;;;;;;5.97;4.63;;;19.60;99.90;;;;;;5064724;28;20616;-82
2021/07/27 07:08:49;;;;;;;7.45;4.57;;;19.80;99.90;;;;;;5068721;28;20036;-83
2021/07/27 07:11:14;;;;;;;6.93;4.63;;;19.50;99.90;;;;;;5067146;28;20058;-82
2021/07/27 07:13:40;;;;;;;10.30;5.22;;;20.40;99.90;;;;;;5070743;28;20024;-84
2021/07/27 07:16:10;;;;;;;7.05;4.53;;;20.00;99.90;;;;;;5067699;28;20025;-84
2021/07/27 07:18:36;;;;;;;6.55;4.45;;;19.90;99.90;;;;;;5063009;28;20043;-83
2021/07/27 07:21:06;;;;;;;10.50;4.60;;;20.50;99.90;;;;;;5064284;28;20037;-80
2021/07/27 07:23:32;;;;;;;7.90;4.57;;;19.80;99.90;;;;;;5067944;28;20020;-83
2021/07/27 07:25:58;;;;;;;8.90;5.05;;;19.70;99.90;;;;;;5064808;28;20065;-83
2021/07/27 07:28:24;;;;;;;9.52;5.22;;;19.70;99.90;;;;;;5065366;28;20059;-84
2021/07/27 07:30:49;;;;;;;8.90;5.13;;;20.30;99.90;;;;;;5064945;28;20024;-81
2021/07/27 07:33:15;;;;;;;6.35;4.50;;;19.80;99.90;;;;;;5070634;28;20032;-82
2021/07/27 07:35:41;;;;;;;7.32;4.80;;;19.80;99.90;;;;;;5074945;28;20059;-82
2021/07/27 07:38:06;;;;;;;7.90;4.68;;;19.80;99.90;;;;;;5063133;28;20029;-83
2021/07/27 07:40:32;;;;;;;9.38;5.10;;;19.70;99.90;;;;;;5066670;28;20025;-83
2021/07/27 07:42:59;;;;;;;6.55;4.70;;;20.20;99.90;;;;;;5065102;28;20085;-82
2021/07/27 07:45:26;;;;;;;9.32;5.07;;;20.10;99.90;;;;;;5064094;28;20024;-84
2021/07/27 07:47:51;;;;;;;7.57;4.75;;;;;;;;;;5066856;28;20024;-85
2021/07/27 07:50:17;;;;;;;8.23;4.72;;;20.30;99.90;;;;;;5063672;28;20028;-83
2021/07/27 07:52:43;;;;;;;8.90;5.03;;;20.30;99.90;;;;;;5068628;28;20088;-85
2021/07/27 07:55:09;;;;;;;8.40;4.82;;;20.40;99.90;;;;;;5071303;28;20030;-82
2021/07/27 07:57:37;;;;;;;9.50;5.00;;;;;;;;;;5070984;28;20047;-84
2021/07/27 08:00:04;;;;;;;9.70;5.30;;;20.30;99.90;;;;;;5066507;28;20036;-84
2021/07/27 08:02:30;;;;;;;8.65;4.68;;;20.30;99.90;;;;;;5072821;28;20024;-83
2021/07/27 08:04:56;;;;;;;10.35;5.25;;;;;;;;;;5071351;28;20497;-83
2021/07/27 08:07:23;;;;;;;9.15;5.30;;;20.50;99.90;;;;;;5071520;28;20559;-82
2021/07/27 08:09:49;;;;;;;7.95;5.03;;;20.50;99.90;;;;;;5067089;28;20025;-84
2021/07/27 08:12:15;;;;;;;7.45;5.03;;;20.40;99.90;;;;;;5065460;28;20031;-81
2021/07/27 08:14:43;;;;;;;7.57;5.13;;;;;;;;;;5066867;28;20028;-83
2021/07/27 08:17:10;;;;;;;7.10;4.78;;;;;;;;;;5068476;28;20028;-83
2021/07/27 08:19:38;;;;;;;6.63;4.72;;;;;;;;;;5063553;28;20035;-83
2021/07/27 08:22:04;;;;;;;9.48;4.95;;;20.60;99.90;;;;;;5062625;28;20029;-81
2021/07/27 08:24:32;;;;;;;8.50;5.03;;;20.70;99.90;;;;;;5070653;28;20025;-83
2021/07/27 08:26:58;;;;;;;8.82;5.00;;;;;;;;;;5062340;28;20037;-82
2021/07/27 08:29:24;;;;;;;6.97;4.85;;;;;;;;;;5061855;28;20032;-84
2021/07/27 08:31:50;;;;;;;7.68;5.20;;;;;;;;;;5069002;28;20036;-83
2021/07/27 08:34:18;;;;;;;6.35;4.68;;;21.40;99.90;;;;;;5068540;28;20025;-82
2021/07/27 08:36:45;;;;;;;6.30;4.95;;;21.60;99.90;;;;;;5066286;28;20070;-82
2021/07/27 08:39:11;;;;;;;5.78;4.68;;;22.00;99.90;;;;;;5067663;28;20078;-83
2021/07/27 08:41:39;;;;;;;7.28;5.13;;;21.80;99.90;;;;;;5066637;28;20614;-83
2021/07/27 08:44:16;;;;;;;8.00;4.82;;;21.90;99.90;;;;;;5062889;28;20056;-83
2021/07/27 08:46:42;;;;;;;7.43;4.80;;;22.00;99.90;;;;;;5061189;28;20025;-82
2021/07/27 08:49:08;;;;;;;11.77;4.85;;;22.10;99.90;;;;;;5063362;28;20024;-80
2021/07/27 08:51:34;;;;;;;7.93;4.70;;;22.20;99.90;;;;;;5066838;28;20032;-82
2021/07/27 08:54:00;;;;;;;8.98;5.10;;;22.10;99.90;;;;;;5064427;28;20032;-84
2021/07/27 08:56:25;;;;;;;7.30;5.20;;;22.60;99.90;;;;;;5068819;28;20032;-84
2021/07/27 08:58:51;;;;;;;7.32;4.60;;;22.00;99.90;;;;;;5065190;28;20103;-80
2021/07/27 09:01:24;;;;;;;12.38;6.38;;;21.80;99.90;;;;;;5068678;28;20497;-83
2021/07/27 09:03:49;;;;;;;7.50;5.15;;;21.90;99.90;;;;;;5071408;28;20016;-82
2021/07/27 09:06:21;;;;;;;6.97;4.57;;;21.80;99.90;;;;;;5077392;28;20486;-83
2021/07/27 09:08:47;;;;;;;7.07;4.85;;;;;;;;;;5072388;28;20050;-83
2021/07/27 09:11:15;;;;;;;7.78;4.95;;;21.80;99.90;;;;;;5071039;28;20025;-84
2021/07/27 09:13:41;;;;;;;8.93;4.85;;;21.80;99.90;;;;;;5073643;28;20029;-82
2021/07/27 09:16:07;;;;;;;7.53;5.18;;;21.90;99.90;;;;;;5071139;28;20139;-83
2021/07/27 09:18:34;;;;;;;7.22;5.15;;;22.20;99.90;;;;;;5067141;28;20033;-82
2021/07/27 09:21:02;;;;;;;7.60;4.93;;;23.50;99.90;;;;;;5073169;28;20432;-84
2021/07/27 09:23:28;;;;;;;7.40;4.85;;;22.10;99.90;;;;;;5071170;28;20634;-80
2021/07/27 09:25:55;;;;;;;7.22;4.70;;;22.10;99.90;;;;;;5068250;28;20062;-79
2021/07/27 09:28:22;;;;;;;7.18;4.47;;;22.30;99.90;;;;;;5071651;28;20032;-81
2021/07/27 09:30:49;;;;;;;7.57;5.28;;;22.20;99.90;;;;;;5068001;28;20045;-81
2021/07/27 09:33:16;;;;;;;9.80;5.28;;;22.30;99.90;;;;;;5070121;28;20028;-82
2021/07/27 09:35:43;;;;;;;7.03;4.82;;;22.30;99.90;;;;;;5076637;28;20684;-82
2021/07/27 09:38:15;;;;;;;6.95;5.07;;;22.30;99.90;;;;;;5071349;28;20013;-81
2021/07/27 09:40:57;;;;;;;9.48;5.60;;;22.80;99.90;;;;;;5083913;28;20209;-83
2021/07/27 09:43:24;;;;;;;7.53;5.43;;;22.10;99.90;;;;;;5080513;28;20025;-81
2021/07/27 09:45:52;;;;;;;12.65;5.38;;;22.10;99.90;;;;;;5068378;28;20071;-80
2021/07/27 09:48:20;;;;;;;8.20;4.97;;;22.10;99.90;;;;;;5060043;28;20036;-81
2021/07/27 09:50:52;;;;;;;8.57;5.35;;;22.10;99.90;;;;;;5063093;28;20056;-81
2021/07/27 09:53:18;;;;;;;8.30;5.38;;;22.20;99.90;;;;;;5064251;28;20029;-84
2021/07/27 09:55:44;;;;;;;7.45;5.40;;;23.00;99.90;;;;;;5067999;28;20036;-82
2021/07/27 09:58:11;;;;;;;7.93;5.40;;;22.10;99.90;;;;;;5071410;28;20502;-80
2021/07/27 10:00:50;;;;;;;7.70;5.15;;;22.40;99.90;;;;;;5069326;28;20057;-84
2021/07/27 10:03:21;;;;;;;8.93;5.60;;;22.40;99.90;;;;;;5068081;28;20021;-87
2021/07/27 10:05:55;;;;;;;7.20;5.57;;;22.60;99.90;;;;;;5072433;28;20822;-84
2021/07/27 10:08:30;;;;;;;9.10;4.93;;;22.60;99.90;;;;;;5065313;28;20116;-83
2021/07/27 10:11:05;;;;;;;9.32;5.68;;;22.60;99.90;;;;;;5083379;28;20111;-84
2021/07/27 10:13:36;;;;;;;7.57;5.38;;;22.60;99.90;;;;;;5070169;28;20024;-86
2021/07/27 10:16:02;;;;;;;7.25;5.13;;;23.50;99.90;;;;;;5067661;28;20029;-82
2021/07/27 10:18:33;;;;;;;7.00;5.00;;;22.50;99.90;;;;;;5070296;28;20093;-82
2021/07/27 10:21:23;;;;;;;8.13;5.47;;;22.60;99.90;;;;;;5070739;28;20052;-85
2021/07/27 10:23:49;;;;;;;6.80;5.22;;;;;;;;;;5068640;28;20521;-82
2021/07/27 10:26:25;;;;;;;10.30;5.53;;;22.80;99.90;;;;;;5072144;28;20037;-84
2021/07/27 10:28:55;;;;;;;7.00;4.80;;;22.80;99.90;;;;;;5068416;28;20033;-85
2021/07/27 10:31:40;;;;;;;7.70;5.00;;;22.90;99.90;;;;;;5073771;28;20064;-85
2021/07/27 10:34:08;;;;;;;7.03;4.72;;;23.10;99.90;;;;;;5066815;28;21209;-82
2021/07/27 10:36:40;;;;;;;7.38;5.03;;;23.10;99.90;;;;;;5075775;28;20112;-82
2021/07/27 10:39:07;;;;;;;7.72;5.65;;;23.10;99.90;;;;;;5055825;28;20040;-83
2021/07/27 10:41:39;;;;;;;6.68;4.88;;;23.10;99.90;;;;;;5071501;28;20047;-83
2021/07/27 10:44:12;;;;;;;9.80;5.40;;;23.20;99.90;;;;;;5074386;28;20025;-86
2021/07/27 10:46:39;;;;;;;7.40;5.20;;;23.10;99.90;;;;;;5070180;28;20028;-82
2021/07/27 10:49:05;;;;;;;7.25;5.05;;;23.20;99.90;;;;;;5070292;28;20028;-83
2021/07/27 10:51:38;;;;;;;7.50;5.40;;;23.30;99.90;;;;;;5069189;28;20069;-83
2021/07/27 10:54:05;;;;;;;6.88;5.03;;;23.30;99.90;;;;;;5068850;28;20270;-82
2021/07/27 10:56:31;;;;;;;9.73;5.50;;;23.40;99.90;;;;;;5075080;28;20025;-83
2021/07/27 10:58:58;;;;;;;8.93;5.53;;;23.40;99.90;;;;;;5074754;28;20032;-82
2021/07/27 11:01:30;;;;;;;7.32;5.43;;;23.50;99.90;;;;;;5067431;28;20563;-81
2021/07/27 11:04:10;;;;;;;7.65;5.40;;;23.70;99.90;;;;;;5065869;28;20513;-81
2021/07/27 11:06:37;;;;;;;7.85;5.25;;;23.50;99.90;;;;;;5068039;28;20043;-83
2021/07/27 11:09:02;;;;;;;6.93;5.30;;;23.50;99.90;;;;;;5069442;28;20502;-82
2021/07/27 11:11:28;;;;;;;6.80;5.25;;;23.40;99.90;;;;;;5064792;28;20054;-81
2021/07/27 11:13:54;;;;;;;8.43;5.85;;;23.50;99.90;;;;;;5062506;28;20624;-82
2021/07/27 11:16:20;;;;;;;9.68;5.95;;;23.50;99.90;;;;;;5069935;28;20071;-81
2021/07/27 11:18:46;;;;;;;7.15;5.38;;;23.60;99.90;;;;;;5076261;28;20107;-83
2021/07/27 11:21:12;;;;;;;7.72;5.50;;;23.50;99.80;;;;;;5073907;28;20111;-83
2021/07/27 11:23:39;;;;;;;8.32;5.75;;;23.80;99.80;;;;;;5071211;28;20020;-83
2021/07/27 11:26:04;;;;;;;7.15;5.30;;;24.20;98.90;;;;;;5070570;28;20029;-81
2021/07/27 11:28:37;;;;;;;8.75;5.47;;;24.20;99.50;;;;;;5060936;28;20032;-81
2021/07/27 11:31:16;;;;;;;7.93;5.78;;;24.70;98.20;;;;;;5063960;28;20557;-83
2021/07/27 11:33:51;;;;;;;9.15;5.60;;;24.80;97.90;;;;;;5073529;28;20029;-82
2021/07/27 11:36:24;;;;;;;7.05;5.43;;;24.70;97.50;;;;;;5067959;28;20082;-80
2021/07/27 11:38:50;;;;;;;7.28;5.53;;;24.60;97.70;;;;;;5070535;28;20113;-82
2021/07/27 11:41:20;;;;;;;8.98;5.57;;;24.70;97.60;;;;;;5065437;28;20029;-81
2021/07/27 11:43:49;;;;;;;9.55;6.38;;;24.90;97.30;;;;;;5065179;28;20081;-81
2021/07/27 11:46:19;;;;;;;8.02;5.55;;;25.10;97.20;;;;;;5060283;28;20036;-81
2021/07/27 11:48:55;;;;;;;8.52;5.35;;;25.30;97.30;;;;;;5071142;28;20040;-82
2021/07/27 11:51:33;;;;;;;6.43;4.93;;;25.60;96.30;;;;;;5067855;28;20060;-84
2021/07/27 11:54:00;;;;;;;7.90;5.63;;;;;;;;;;5069730;28;20523;-82
2021/07/27 11:56:26;;;;;;;8.23;6.10;;;25.90;94.60;;;;;;5070131;28;20025;-81
2021/07/27 11:59:12;;;;;;;8.52;5.20;;;26.10;94.90;;;;;;5072618;28;20095;-83
2021/07/27 12:01:43;;;;;;;7.22;5.50;;;26.40;94.90;;;;;;5069598;28;20036;-82
2021/07/27 12:04:10;;;;;;;7.63;5.57;;;27.00;94.60;;;;;;5068813;28;20504;-83
2021/07/27 12:06:49;;;;;;;7.55;5.22;;;26.30;93.70;;;;;;5069482;28;20035;-81
2021/07/27 12:09:15;;;;;;;7.63;5.75;;;26.00;92.40;;;;;;5064503;28;20036;-83
2021/07/27 12:11:41;;;;;;;8.95;5.78;;;26.00;93.00;;;;;;5066095;28;20025;-80
2021/07/27 12:14:07;;;;;;;6.70;4.93;;;26.10;93.20;;;;;;5062296;28;20079;-82
2021/07/27 12:16:33;;;;;;;7.90;5.65;;;26.00;93.60;;;;;;5070358;28;20390;-82
2021/07/27 12:18:59;;;;;;;8.15;5.68;;;26.00;93.60;;;;;;5062544;28;20082;-82
2021/07/27 12:21:24;;;;;;;6.88;5.07;;;25.80;93.50;;;;;;5065009;28;20030;-81
2021/07/27 12:23:50;;;;;;;7.22;5.22;;;25.80;92.90;;;;;;5070636;28;20052;-83
2021/07/27 12:26:16;;;;;;;9.02;5.55;;;;;;;;;;5072702;28;20064;-82
2021/07/27 12:28:42;;;;;;;8.15;5.78;;;;;;;;;;5067185;28;20120;-82
2021/07/27 12:31:08;;;;;;;23.45;6.88;;;;;;;;;;5069138;28;20032;-85
2021/07/27 12:33:33;;;;;;;9.07;5.45;;;25.50;93.30;;;;;;5070092;28;20024;-83
2021/07/27 12:36:00;;;;;;;7.70;5.82;;;25.60;93.70;;;;;;5073550;28;20032;-83
2021/07/27 12:38:26;;;;;;;7.45;5.50;;;25.10;93.60;;;;;;5071991;28;20035;-84
2021/07/27 12:40:52;;;;;;;7.35;5.22;;;25.00;93.90;;;;;;5066540;28;20021;-84
2021/07/27 12:43:17;;;;;;;8.73;5.95;;;25.10;93.80;;;;;;5067268;28;20027;-82
2021/07/27 12:45:44;;;;;;;6.80;5.20;;;25.10;93.90;;;;;;5072655;28;20029;-83
2021/07/27 12:48:10;;;;;;;7.03;5.53;;;24.90;93.70;;;;;;5073314;28;20033;-85
2021/07/27 12:50:36;;;;;;;8.38;5.93;;;24.80;93.90;;;;;;5070986;28;20033;-83
2021/07/27 12:53:02;;;;;;;9.13;5.63;;;24.90;93.50;;;;;;5075239;28;20043;-83
2021/07/27 12:55:28;;;;;;;8.65;6.13;;;;;;;;;;5072120;28;20028;-84
2021/07/27 12:57:53;;;;;;;9.18;5.53;;;25.00;93.40;;;;;;5069075;28;20067;-83
2021/07/27 13:00:19;;;;;;;6.85;5.13;;;25.10;93.80;;;;;;5069378;28;20024;-85
2021/07/27 13:02:45;;;;;;;9.02;5.65;;;25.10;93.50;;;;;;5075993;28;20025;-85
2021/07/27 13:05:11;;;;;;;7.28;5.18;;;25.20;93.70;;;;;;5068849;28;20040;-84
2021/07/27 13:07:37;;;;;;;9.00;6.13;;;;;;;;;;5074636;28;20028;-84
2021/07/27 13:10:04;;;;;;;6.93;4.85;;;25.00;93.10;;;;;;5078034;28;20116;-83
2021/07/27 13:12:30;;;;;;;9.27;5.38;;;;;;;;;;5073263;28;20029;-84
2021/07/27 13:14:58;;;;;;;7.53;5.38;;;25.00;93.00;;;;;;5076457;28;20025;-85
2021/07/27 13:17:24;;;;;;;10.00;5.40;;;25.10;93.30;;;;;;5073925;28;20083;-85
2021/07/27 13:19:50;;;;;;;6.97;4.63;;;;;;;;;;5068597;28;20219;-82
2021/07/27 13:22:16;;;;;;;9.23;5.13;;;25.20;92.30;;;;;;5069559;28;20066;-82
2021/07/27 13:24:42;;;;;;;7.53;5.00;;;25.10;92.80;;;;;;5073465;28;20119;-82
2021/07/27 13:27:08;;;;;;;7.32;5.30;;;;;;;;;;5069745;28;20029;-84
2021/07/27 13:29:37;;;;;;;7.70;5.53;;;25.10;92.80;;;;;;5072419;28;20044;-82
2021/07/27 13:32:04;;;;;;;7.15;4.93;;;25.10;92.80;;;;;;5075876;28;20032;-83
2021/07/27 13:34:29;;;;;;;7.45;5.20;;;25.10;92.90;;;;;;5074522;28;20032;-84
2021/07/27 13:36:55;;;;;;;7.25;5.40;;;25.00;92.80;;;;;;5069160;28;20552;-85
2021/07/27 13:39:20;;;;;;;8.20;5.25;;;24.90;93.10;;;;;;5072947;28;20151;-84
2021/07/27 13:41:46;;;;;;;7.72;5.50;;;24.60;93.10;;;;;;5074779;28;20028;-83
2021/07/27 13:44:12;;;;;;;6.97;5.10;;;24.90;93.60;;;;;;5073231;28;20033;-84
2021/07/27 13:46:37;;;;;;;7.28;5.22;;;24.60;93.50;;;;;;5076374;28;20080;-84